sensor_id;sensor_type;location;lat;lon;timestamp;pressure;altitude;pressure_sealevel;temperature;humidity
39613;BME280;25303;48.896;13.342;2022-12-29T00:00:46;92715.66;;;2.24;68.14
39613;BME280;25303;48.896;13.342;2022-12-29T00:03:30;92711.16;;;2.28;67.85
39613;BME280;25303;48.896;13.342;2022-12-29T00:06:14;92701.72;;;2.30;67.72
39613;BME280;25303;48.896;13.342;2022-12-29T00:08:57;92704.84;;;2.34;67.47
39613;BME280;25303;48.896;13.342;2022-12-29T00:11:40;92701.16;;;2.38;67.16
39613;BME280;25303;48.896;13.342;2022-12-29T00:14:23;92698.88;;;2.46;67.09
39613;BME280;25303;48.896;13.342;2022-12-29T00:17:23;92684.34;;;2.48;66.87
39613;BME280;25303;48.896;13.342;2022-12-29T00:20:08;92684.56;;;2.45;66.57
39613;BME280;25303;48.896;13.342;2022-12-29T00:23:08;92680.75;;;2.39;66.34
39613;BME280;25303;48.896;13.342;2022-12-29T00:26:12;92682.94;;;2.44;66.56
39613;BME280;25303;48.896;13.342;2022-12-29T00:29:14;92677.38;;;2.39;66.68
39613;BME280;25303;48.896;13.342;2022-12-29T00:32:14;92669.59;;;2.29;66.61
39613;BME280;25303;48.896;13.342;2022-12-29T00:35:22;92681.38;;;2.19;67.11
39613;BME280;25303;48.896;13.342;2022-12-29T00:38:07;92674.75;;;2.16;67.20
39613;BME280;25303;48.896;13.342;2022-12-29T00:41:08;92675.00;;;2.13;67.36
39613;BME280;25303;48.896;13.342;2022-12-29T00:44:09;92676.34;;;2.06;67.50
39613;BME280;25303;48.896;13.342;2022-12-29T00:46:53;92675.66;;;2.04;67.40
39613;BME280;25303;48.896;13.342;2022-12-29T00:49:36;92679.31;;;2.00;67.58
39613;BME280;25303;48.896;13.342;2022-12-29T00:52:19;92671.34;;;1.93;67.52
39613;BME280;25303;48.896;13.342;2022-12-29T00:55:02;92685.44;;;1.97;67.80
39613;BME280;25303;48.896;13.342;2022-12-29T00:57:45;92679.78;;;1.93;67.96
39613;BME280;25303;48.896;13.342;2022-12-29T01:00:28;92681.13;;;1.86;67.65
39613;BME280;25303;48.896;13.342;2022-12-29T01:03:11;92678.69;;;1.85;67.69
39613;BME280;25303;48.896;13.342;2022-12-29T01:05:54;92672.13;;;1.82;67.91
39613;BME280;25303;48.896;13.342;2022-12-29T01:08:38;92683.97;;;1.81;67.77
39613;BME280;25303;48.896;13.342;2022-12-29T01:11:21;92686.19;;;1.86;67.69
39613;BME280;25303;48.896;13.342;2022-12-29T01:14:03;92684.91;;;1.80;67.63
39613;BME280;25303;48.896;13.342;2022-12-29T01:16:47;92687.94;;;1.86;67.51
39613;BME280;25303;48.896;13.342;2022-12-29T01:19:31;92693.22;;;1.82;67.66
39613;BME280;25303;48.896;13.342;2022-12-29T01:22:14;92688.84;;;1.85;67.85
39613;BME280;25303;48.896;13.342;2022-12-29T01:24:59;92681.25;;;1.85;67.38
39613;BME280;25303;48.896;13.342;2022-12-29T01:27:42;92674.31;;;1.87;67.38
39613;BME280;25303;48.896;13.342;2022-12-29T01:30:26;92678.16;;;1.92;67.49
39613;BME280;25303;48.896;13.342;2022-12-29T01:33:09;92673.66;;;1.96;67.23
39613;BME280;25303;48.896;13.342;2022-12-29T01:35:53;92685.06;;;1.90;66.72
39613;BME280;25303;48.896;13.342;2022-12-29T01:38:37;92686.56;;;1.93;67.14
39613;BME280;25303;48.896;13.342;2022-12-29T01:41:22;92682.94;;;1.84;66.76
39613;BME280;25303;48.896;13.342;2022-12-29T01:44:39;92678.56;;;1.86;66.75
39613;BME280;25303;48.896;13.342;2022-12-29T01:47:33;92675.94;;;1.88;66.98
39613;BME280;25303;48.896;13.342;2022-12-29T01:50:20;92674.88;;;1.79;66.90
39613;BME280;25303;48.896;13.342;2022-12-29T01:53:07;92682.16;;;1.84;66.91
39613;BME280;25303;48.896;13.342;2022-12-29T01:55:54;92669.34;;;1.85;66.89
39613;BME280;25303;48.896;13.342;2022-12-29T01:58:41;92668.41;;;1.86;66.78
39613;BME280;25303;48.896;13.342;2022-12-29T02:01:27;92663.97;;;1.90;66.92
39613;BME280;25303;48.896;13.342;2022-12-29T02:04:11;92658.88;;;1.90;66.91
39613;BME280;25303;48.896;13.342;2022-12-29T02:06:57;92653.81;;;1.90;66.66
39613;BME280;25303;48.896;13.342;2022-12-29T02:09:42;92658.06;;;1.89;66.70
39613;BME280;25303;48.896;13.342;2022-12-29T02:12:25;92651.03;;;1.93;66.54
39613;BME280;25303;48.896;13.342;2022-12-29T02:15:10;92644.22;;;1.93;66.53
39613;BME280;25303;48.896;13.342;2022-12-29T02:17:59;92647.00;;;1.90;66.06
39613;BME280;25303;48.896;13.342;2022-12-29T02:24:21;92650.22;;;1.92;66.06
39613;BME280;25303;48.896;13.342;2022-12-29T02:30:49;92642.19;;;1.99;65.81
39613;BME280;25303;48.896;13.342;2022-12-29T02:33:48;92632.94;;;1.97;65.81
39613;BME280;25303;48.896;13.342;2022-12-29T02:36:41;92638.69;;;2.00;65.95
39613;BME280;25303;48.896;13.342;2022-12-29T02:39:33;92648.53;;;2.04;65.99
39613;BME280;25303;48.896;13.342;2022-12-29T02:42:26;92629.16;;;2.03;65.67
39613;BME280;25303;48.896;13.342;2022-12-29T02:45:21;92635.38;;;2.10;65.63
39613;BME280;25303;48.896;13.342;2022-12-29T02:48:10;92621.31;;;2.06;65.37
39613;BME280;25303;48.896;13.342;2022-12-29T02:51:00;92617.72;;;2.09;65.52
39613;BME280;25303;48.896;13.342;2022-12-29T02:53:44;92625.34;;;2.09;65.58
39613;BME280;25303;48.896;13.342;2022-12-29T02:56:45;92623.25;;;2.03;65.10
39613;BME280;25303;48.896;13.342;2022-12-29T02:59:28;92624.66;;;2.07;65.10
39613;BME280;25303;48.896;13.342;2022-12-29T03:02:21;92624.31;;;2.11;64.94
39613;BME280;25303;48.896;13.342;2022-12-29T03:05:22;92616.00;;;2.09;64.65
39613;BME280;25303;48.896;13.342;2022-12-29T03:08:16;92620.84;;;2.12;64.83
39613;BME280;25303;48.896;13.342;2022-12-29T03:11:03;92630.31;;;2.10;65.07
39613;BME280;25303;48.896;13.342;2022-12-29T03:13:49;92613.78;;;2.05;64.87
39613;BME280;25303;48.896;13.342;2022-12-29T03:16:57;92615.72;;;1.90;65.20
39613;BME280;25303;48.896;13.342;2022-12-29T03:19:46;92609.81;;;1.89;65.02
39613;BME280;25303;48.896;13.342;2022-12-29T03:22:38;92617.28;;;1.79;65.24
39613;BME280;25303;48.896;13.342;2022-12-29T03:25:28;92612.91;;;1.81;65.22
39613;BME280;25303;48.896;13.342;2022-12-29T03:28:20;92604.97;;;1.86;64.90
39613;BME280;25303;48.896;13.342;2022-12-29T03:31:06;92602.00;;;1.92;64.76
39613;BME280;25303;48.896;13.342;2022-12-29T03:33:53;92599.81;;;1.99;64.94
39613;BME280;25303;48.896;13.342;2022-12-29T03:36:42;92600.03;;;1.96;64.79
39613;BME280;25303;48.896;13.342;2022-12-29T03:39:28;92602.34;;;1.99;64.76
39613;BME280;25303;48.896;13.342;2022-12-29T03:42:13;92605.38;;;2.04;64.74
39613;BME280;25303;48.896;13.342;2022-12-29T03:44:59;92606.28;;;2.03;64.45
39613;BME280;25303;48.896;13.342;2022-12-29T03:47:42;92604.91;;;2.10;64.71
39613;BME280;25303;48.896;13.342;2022-12-29T03:50:26;92602.72;;;2.06;64.26
39613;BME280;25303;48.896;13.342;2022-12-29T03:53:09;92603.78;;;2.15;64.56
39613;BME280;25303;48.896;13.342;2022-12-29T03:55:54;92612.66;;;2.20;64.40
39613;BME280;25303;48.896;13.342;2022-12-29T03:58:37;92619.00;;;2.15;63.53
39613;BME280;25303;48.896;13.342;2022-12-29T04:01:23;92613.59;;;2.19;64.05
39613;BME280;25303;48.896;13.342;2022-12-29T04:04:07;92614.63;;;2.17;64.02
39613;BME280;25303;48.896;13.342;2022-12-29T04:06:50;92608.28;;;2.22;64.20
39613;BME280;25303;48.896;13.342;2022-12-29T04:09:33;92618.00;;;2.28;64.28
39613;BME280;25303;48.896;13.342;2022-12-29T04:12:18;92613.84;;;2.27;64.03
39613;BME280;25303;48.896;13.342;2022-12-29T04:15:01;92616.84;;;2.33;64.02
39613;BME280;25303;48.896;13.342;2022-12-29T04:17:44;92619.88;;;2.38;64.02
39613;BME280;25303;48.896;13.342;2022-12-29T04:20:27;92634.19;;;2.39;64.05
39613;BME280;25303;48.896;13.342;2022-12-29T04:23:27;92625.50;;;2.41;64.15
39613;BME280;25303;48.896;13.342;2022-12-29T04:26:11;92617.91;;;2.41;63.90
39613;BME280;25303;48.896;13.342;2022-12-29T04:29:06;92616.75;;;2.46;64.14
39613;BME280;25303;48.896;13.342;2022-12-29T04:31:57;92614.78;;;2.49;64.15
39613;BME280;25303;48.896;13.342;2022-12-29T04:34:42;92617.00;;;2.54;64.00
39613;BME280;25303;48.896;13.342;2022-12-29T04:37:26;92611.34;;;2.62;63.99
39613;BME280;25303;48.896;13.342;2022-12-29T04:40:10;92610.88;;;2.68;63.95
39613;BME280;25303;48.896;13.342;2022-12-29T04:42:54;92606.38;;;2.71;63.68
39613;BME280;25303;48.896;13.342;2022-12-29T04:45:42;92611.81;;;2.78;63.69
39613;BME280;25303;48.896;13.342;2022-12-29T04:48:38;92612.38;;;2.82;63.58
39613;BME280;25303;48.896;13.342;2022-12-29T04:51:32;92603.38;;;2.89;63.43
39613;BME280;25303;48.896;13.342;2022-12-29T04:54:14;92600.91;;;2.99;63.26
39613;BME280;25303;48.896;13.342;2022-12-29T04:57:02;92600.00;;;3.11;63.18
39613;BME280;25303;48.896;13.342;2022-12-29T04:59:46;92597.66;;;3.19;63.18
39613;BME280;25303;48.896;13.342;2022-12-29T05:02:30;92592.91;;;3.26;62.94
39613;BME280;25303;48.896;13.342;2022-12-29T05:05:14;92591.38;;;3.35;63.04
39613;BME280;25303;48.896;13.342;2022-12-29T05:08:02;92600.25;;;3.41;62.70
39613;BME280;25303;48.896;13.342;2022-12-29T05:10:46;92596.09;;;3.51;62.54
39613;BME280;25303;48.896;13.342;2022-12-29T05:13:31;92600.81;;;3.56;62.28
39613;BME280;25303;48.896;13.342;2022-12-29T05:16:14;92604.59;;;3.61;62.09
39613;BME280;25303;48.896;13.342;2022-12-29T05:18:59;92601.03;;;3.64;62.12
39613;BME280;25303;48.896;13.342;2022-12-29T05:21:43;92607.47;;;3.68;61.77
39613;BME280;25303;48.896;13.342;2022-12-29T05:24:26;92598.13;;;3.69;61.34
39613;BME280;25303;48.896;13.342;2022-12-29T05:27:11;92605.25;;;3.75;61.24
39613;BME280;25303;48.896;13.342;2022-12-29T05:30:03;92596.44;;;3.79;61.34
39613;BME280;25303;48.896;13.342;2022-12-29T05:32:46;92599.06;;;3.89;61.61
39613;BME280;25303;48.896;13.342;2022-12-29T05:35:31;92603.00;;;3.93;61.65
39613;BME280;25303;48.896;13.342;2022-12-29T05:38:14;92592.81;;;3.93;60.97
39613;BME280;25303;48.896;13.342;2022-12-29T05:40:59;92579.94;;;3.94;61.01
39613;BME280;25303;48.896;13.342;2022-12-29T05:44:16;92587.41;;;4.07;60.90
39613;BME280;25303;48.896;13.342;2022-12-29T05:47:07;92595.34;;;4.14;60.50
39613;BME280;25303;48.896;13.342;2022-12-29T05:50:13;92606.94;;;4.07;60.32
39613;BME280;25303;48.896;13.342;2022-12-29T05:53:19;92600.75;;;4.00;60.70
39613;BME280;25303;48.896;13.342;2022-12-29T05:56:02;92589.19;;;3.95;60.86
39613;BME280;25303;48.896;13.342;2022-12-29T05:58:46;92589.31;;;3.94;60.96
39613;BME280;25303;48.896;13.342;2022-12-29T06:01:29;92586.53;;;3.97;60.75
39613;BME280;25303;48.896;13.342;2022-12-29T06:04:12;92605.34;;;4.06;60.88
39613;BME280;25303;48.896;13.342;2022-12-29T06:06:55;92602.53;;;4.09;60.67
39613;BME280;25303;48.896;13.342;2022-12-29T06:09:58;92594.81;;;4.10;60.72
39613;BME280;25303;48.896;13.342;2022-12-29T06:12:43;92600.69;;;4.11;60.88
39613;BME280;25303;48.896;13.342;2022-12-29T06:15:26;92595.16;;;4.06;60.70
39613;BME280;25303;48.896;13.342;2022-12-29T06:18:09;92607.34;;;4.02;61.17
39613;BME280;25303;48.896;13.342;2022-12-29T06:21:00;92593.84;;;3.90;61.07
39613;BME280;25303;48.896;13.342;2022-12-29T06:23:43;92593.03;;;3.90;60.98
39613;BME280;25303;48.896;13.342;2022-12-29T06:26:27;92589.00;;;3.87;60.74
39613;BME280;25303;48.896;13.342;2022-12-29T06:29:11;92596.38;;;3.90;61.10
39613;BME280;25303;48.896;13.342;2022-12-29T06:31:58;92607.03;;;3.95;60.77
39613;BME280;25303;48.896;13.342;2022-12-29T06:34:42;92612.31;;;4.04;60.99
39613;BME280;25303;48.896;13.342;2022-12-29T06:37:26;92602.78;;;4.06;61.16
39613;BME280;25303;48.896;13.342;2022-12-29T06:40:10;92594.50;;;4.04;61.02
39613;BME280;25303;48.896;13.342;2022-12-29T06:43:11;92597.09;;;4.14;60.83
39613;BME280;25303;48.896;13.342;2022-12-29T06:46:11;92591.88;;;4.15;60.57
39613;BME280;25303;48.896;13.342;2022-12-29T06:48:54;92585.59;;;4.19;60.96
39613;BME280;25303;48.896;13.342;2022-12-29T06:51:37;92594.19;;;4.18;61.16
39613;BME280;25303;48.896;13.342;2022-12-29T06:54:20;92600.75;;;4.21;60.88
39613;BME280;25303;48.896;13.342;2022-12-29T06:57:03;92597.41;;;4.20;60.91
39613;BME280;25303;48.896;13.342;2022-12-29T06:59:47;92601.19;;;4.26;60.77
39613;BME280;25303;48.896;13.342;2022-12-29T07:02:30;92595.97;;;4.28;60.62
39613;BME280;25303;48.896;13.342;2022-12-29T07:05:13;92600.13;;;4.29;60.88
39613;BME280;25303;48.896;13.342;2022-12-29T07:07:56;92609.63;;;4.26;60.22
39613;BME280;25303;48.896;13.342;2022-12-29T07:10:39;92595.22;;;4.37;60.16
39613;BME280;25303;48.896;13.342;2022-12-29T07:13:22;92599.41;;;4.48;60.12
39613;BME280;25303;48.896;13.342;2022-12-29T07:16:07;92597.44;;;4.51;60.08
39613;BME280;25303;48.896;13.342;2022-12-29T07:18:51;92598.25;;;4.52;60.12
39613;BME280;25303;48.896;13.342;2022-12-29T07:21:34;92602.31;;;4.54;59.43
39613;BME280;25303;48.896;13.342;2022-12-29T07:24:17;92606.19;;;4.59;59.67
39613;BME280;25303;48.896;13.342;2022-12-29T07:26:59;92623.25;;;4.58;59.82
39613;BME280;25303;48.896;13.342;2022-12-29T07:29:42;92613.53;;;4.52;59.74
39613;BME280;25303;48.896;13.342;2022-12-29T07:32:26;92614.59;;;4.49;59.99
39613;BME280;25303;48.896;13.342;2022-12-29T07:35:09;92630.16;;;4.46;60.20
39613;BME280;25303;48.896;13.342;2022-12-29T07:37:52;92610.94;;;4.42;60.11
39613;BME280;25303;48.896;13.342;2022-12-29T07:40:43;92612.16;;;4.48;60.34
39613;BME280;25303;48.896;13.342;2022-12-29T07:43:26;92616.09;;;4.52;60.13
39613;BME280;25303;48.896;13.342;2022-12-29T07:46:29;92601.09;;;4.59;60.18
39613;BME280;25303;48.896;13.342;2022-12-29T07:49:32;92614.81;;;4.67;60.00
39613;BME280;25303;48.896;13.342;2022-12-29T07:52:15;92611.78;;;4.74;59.89
39613;BME280;25303;48.896;13.342;2022-12-29T07:54:58;92615.56;;;4.79;59.24
39613;BME280;25303;48.896;13.342;2022-12-29T07:57:42;92619.22;;;4.86;59.06
39613;BME280;25303;48.896;13.342;2022-12-29T08:00:25;92622.84;;;4.94;58.55
39613;BME280;25303;48.896;13.342;2022-12-29T08:03:08;92615.25;;;5.04;58.71
39613;BME280;25303;48.896;13.342;2022-12-29T08:05:51;92630.16;;;5.08;58.93
39613;BME280;25303;48.896;13.342;2022-12-29T08:08:34;92628.44;;;5.09;58.81
39613;BME280;25303;48.896;13.342;2022-12-29T08:11:17;92632.47;;;5.11;58.92
39613;BME280;25303;48.896;13.342;2022-12-29T08:14:01;92639.84;;;5.14;58.95
39613;BME280;25303;48.896;13.342;2022-12-29T08:16:44;92634.50;;;5.17;58.84
39613;BME280;25303;48.896;13.342;2022-12-29T08:19:26;92647.66;;;5.23;59.04
39613;BME280;25303;48.896;13.342;2022-12-29T08:22:09;92637.19;;;5.26;59.17
39613;BME280;25303;48.896;13.342;2022-12-29T08:24:52;92636.25;;;5.27;58.82
39613;BME280;25303;48.896;13.342;2022-12-29T08:27:35;92645.28;;;5.31;58.76
39613;BME280;25303;48.896;13.342;2022-12-29T08:30:19;92649.06;;;5.37;59.23
39613;BME280;25303;48.896;13.342;2022-12-29T08:33:02;92647.59;;;5.44;59.56
39613;BME280;25303;48.896;13.342;2022-12-29T08:35:45;92647.06;;;5.50;58.71
39613;BME280;25303;48.896;13.342;2022-12-29T08:38:28;92648.97;;;5.58;59.00
39613;BME280;25303;48.896;13.342;2022-12-29T08:41:11;92647.50;;;5.65;58.86
39613;BME280;25303;48.896;13.342;2022-12-29T08:43:54;92648.72;;;5.71;58.51
39613;BME280;25303;48.896;13.342;2022-12-29T08:46:38;92649.25;;;5.74;58.68
39613;BME280;25303;48.896;13.342;2022-12-29T08:49:21;92647.13;;;5.80;58.58
39613;BME280;25303;48.896;13.342;2022-12-29T08:52:04;92653.31;;;5.87;58.56
39613;BME280;25303;48.896;13.342;2022-12-29T08:54:47;92656.00;;;5.95;58.41
39613;BME280;25303;48.896;13.342;2022-12-29T08:57:30;92651.09;;;6.03;58.22
39613;BME280;25303;48.896;13.342;2022-12-29T09:00:29;92654.84;;;6.09;57.89
39613;BME280;25303;48.896;13.342;2022-12-29T09:03:15;92636.97;;;6.09;57.27
39613;BME280;25303;48.896;13.342;2022-12-29T09:06:18;92619.19;;;6.07;57.48
39613;BME280;25303;48.896;13.342;2022-12-29T09:09:00;92622.56;;;6.08;57.25
39613;BME280;25303;48.896;13.342;2022-12-29T09:11:44;92600.63;;;6.05;56.79
39613;BME280;25303;48.896;13.342;2022-12-29T09:14:27;92627.94;;;6.05;56.51
39613;BME280;25303;48.896;13.342;2022-12-29T09:17:10;92643.28;;;6.05;56.64
39613;BME280;25303;48.896;13.342;2022-12-29T09:20:14;92652.56;;;6.06;56.49
39613;BME280;25303;48.896;13.342;2022-12-29T09:22:57;92651.09;;;6.03;56.56
39613;BME280;25303;48.896;13.342;2022-12-29T09:25:40;92657.78;;;6.04;56.49
39613;BME280;25303;48.896;13.342;2022-12-29T09:28:25;92649.47;;;6.02;56.18
39613;BME280;25303;48.896;13.342;2022-12-29T09:31:10;92662.09;;;6.04;56.12
39613;BME280;25303;48.896;13.342;2022-12-29T09:33:53;92662.78;;;6.06;56.09
39613;BME280;25303;48.896;13.342;2022-12-29T09:36:37;92659.13;;;6.08;56.13
39613;BME280;25303;48.896;13.342;2022-12-29T09:39:20;92652.81;;;6.03;55.81
39613;BME280;25303;48.896;13.342;2022-12-29T09:42:07;92659.53;;;6.04;56.01
39613;BME280;25303;48.896;13.342;2022-12-29T09:45:00;92652.03;;;6.02;56.32
39613;BME280;25303;48.896;13.342;2022-12-29T09:47:46;92644.22;;;6.04;56.43
39613;BME280;25303;48.896;13.342;2022-12-29T09:50:31;92648.38;;;6.05;56.34
39613;BME280;25303;48.896;13.342;2022-12-29T09:53:22;92642.44;;;6.04;55.95
39613;BME280;25303;48.896;13.342;2022-12-29T09:56:13;92630.75;;;6.02;55.38
39613;BME280;25303;48.896;13.342;2022-12-29T09:59:00;92626.47;;;6.02;55.87
39613;BME280;25303;48.896;13.342;2022-12-29T10:01:48;92622.16;;;6.03;56.19
39613;BME280;25303;48.896;13.342;2022-12-29T10:04:35;92624.72;;;6.03;55.64
39613;BME280;25303;48.896;13.342;2022-12-29T10:07:28;92615.16;;;6.05;55.37
39613;BME280;25303;48.896;13.342;2022-12-29T10:10:23;92608.00;;;5.99;55.62
39613;BME280;25303;48.896;13.342;2022-12-29T10:13:26;92619.59;;;6.03;55.70
39613;BME280;25303;48.896;13.342;2022-12-29T10:16:17;92603.31;;;6.04;55.37
39613;BME280;25303;48.896;13.342;2022-12-29T10:22:28;92614.59;;;6.31;55.56
39613;BME280;25303;48.896;13.342;2022-12-29T10:25:19;92601.53;;;6.44;55.58
39613;BME280;25303;48.896;13.342;2022-12-29T10:28:15;92607.13;;;6.57;55.39
39613;BME280;25303;48.896;13.342;2022-12-29T10:31:01;92593.53;;;6.66;55.34
39613;BME280;25303;48.896;13.342;2022-12-29T10:33:51;92617.31;;;6.77;54.82
39613;BME280;25303;48.896;13.342;2022-12-29T10:36:38;92591.19;;;6.83;54.43
39613;BME280;25303;48.896;13.342;2022-12-29T10:39:27;92599.91;;;6.90;54.29
39613;BME280;25303;48.896;13.342;2022-12-29T10:42:20;92590.28;;;7.02;54.31
39613;BME280;25303;48.896;13.342;2022-12-29T10:45:05;92587.69;;;7.12;54.33
39613;BME280;25303;48.896;13.342;2022-12-29T10:47:53;92594.50;;;7.21;54.16
39613;BME280;25303;48.896;13.342;2022-12-29T10:50:38;92608.88;;;7.32;54.22
39613;BME280;25303;48.896;13.342;2022-12-29T10:53:27;92590.81;;;7.34;53.24
39613;BME280;25303;48.896;13.342;2022-12-29T10:56:22;92585.34;;;7.47;53.68
39613;BME280;25303;48.896;13.342;2022-12-29T10:59:14;92579.59;;;7.63;53.45
39613;BME280;25303;48.896;13.342;2022-12-29T11:02:06;92577.47;;;7.76;53.45
39613;BME280;25303;48.896;13.342;2022-12-29T11:05:02;92571.97;;;7.89;53.41
39613;BME280;25303;48.896;13.342;2022-12-29T11:07:47;92561.28;;;7.94;53.05
39613;BME280;25303;48.896;13.342;2022-12-29T11:10:35;92568.81;;;7.95;52.67
39613;BME280;25303;48.896;13.342;2022-12-29T11:13:25;92560.09;;;8.06;52.91
39613;BME280;25303;48.896;13.342;2022-12-29T11:16:26;92574.50;;;8.07;52.18
39613;BME280;25303;48.896;13.342;2022-12-29T11:19:21;92558.34;;;7.88;51.75
39613;BME280;25303;48.896;13.342;2022-12-29T11:22:13;92553.38;;;7.87;51.62
39613;BME280;25303;48.896;13.342;2022-12-29T11:25:10;92555.69;;;7.98;52.28
39613;BME280;25303;48.896;13.342;2022-12-29T11:27:56;92547.47;;;8.13;52.79
39613;BME280;25303;48.896;13.342;2022-12-29T11:30:39;92544.63;;;8.16;52.03
39613;BME280;25303;48.896;13.342;2022-12-29T11:33:23;92546.38;;;8.15;52.33
39613;BME280;25303;48.896;13.342;2022-12-29T11:36:10;92538.16;;;8.12;52.09
39613;BME280;25303;48.896;13.342;2022-12-29T11:38:54;92535.56;;;8.03;51.94
39613;BME280;25303;48.896;13.342;2022-12-29T11:41:38;92523.50;;;7.96;51.23
39613;BME280;25303;48.896;13.342;2022-12-29T11:44:20;92528.66;;;8.04;52.42
39613;BME280;25303;48.896;13.342;2022-12-29T11:47:05;92527.03;;;8.03;52.24
39613;BME280;25303;48.896;13.342;2022-12-29T11:49:54;92531.09;;;8.05;52.52
39613;BME280;25303;48.896;13.342;2022-12-29T11:52:38;92536.59;;;8.11;52.55
39613;BME280;25303;48.896;13.342;2022-12-29T11:55:23;92538.53;;;8.17;52.35
39613;BME280;25303;48.896;13.342;2022-12-29T11:58:14;92530.75;;;8.27;52.14
39613;BME280;25303;48.896;13.342;2022-12-29T12:01:01;92527.59;;;8.33;52.01
39613;BME280;25303;48.896;13.342;2022-12-29T12:03:48;92530.66;;;8.36;51.92
39613;BME280;25303;48.896;13.342;2022-12-29T12:06:41;92512.88;;;8.35;51.74
39613;BME280;25303;48.896;13.342;2022-12-29T12:09:31;92513.81;;;8.34;51.55
39613;BME280;25303;48.896;13.342;2022-12-29T12:12:21;92512.78;;;8.27;51.43
39613;BME280;25303;48.896;13.342;2022-12-29T12:15:12;92521.59;;;8.24;51.29
39613;BME280;25303;48.896;13.342;2022-12-29T12:18:11;92512.34;;;8.31;51.71
39613;BME280;25303;48.896;13.342;2022-12-29T12:20:57;92508.97;;;8.31;51.87
39613;BME280;25303;48.896;13.342;2022-12-29T12:23:59;92510.53;;;8.24;51.27
39613;BME280;25303;48.896;13.342;2022-12-29T12:26:54;92511.66;;;8.21;51.56
39613;BME280;25303;48.896;13.342;2022-12-29T12:29:43;92505.66;;;8.12;51.44
39613;BME280;25303;48.896;13.342;2022-12-29T12:32:36;92512.03;;;8.08;51.49
39613;BME280;25303;48.896;13.342;2022-12-29T12:35:32;92501.56;;;8.01;51.35
39613;BME280;25303;48.896;13.342;2022-12-29T12:38:29;92504.44;;;7.98;51.67
39613;BME280;25303;48.896;13.342;2022-12-29T12:41:22;92504.09;;;7.93;51.86
39613;BME280;25303;48.896;13.342;2022-12-29T12:44:12;92497.50;;;7.90;51.92
39613;BME280;25303;48.896;13.342;2022-12-29T12:47:15;92502.63;;;7.90;52.09
39613;BME280;25303;48.896;13.342;2022-12-29T12:50:35;92504.88;;;7.94;52.39
39613;BME280;25303;48.896;13.342;2022-12-29T12:53:43;92508.69;;;7.89;52.06
39613;BME280;25303;48.896;13.342;2022-12-29T12:56:46;92497.50;;;7.90;52.23
39613;BME280;25303;48.896;13.342;2022-12-29T12:59:39;92492.72;;;7.96;52.59
39613;BME280;25303;48.896;13.342;2022-12-29T13:02:34;92499.38;;;8.06;52.96
39613;BME280;25303;48.896;13.342;2022-12-29T13:05:34;92493.19;;;8.17;52.62
39613;BME280;25303;48.896;13.342;2022-12-29T13:11:35;92500.56;;;8.20;52.18
39613;BME280;25303;48.896;13.342;2022-12-29T13:14:34;92487.56;;;8.14;51.79
39613;BME280;25303;48.896;13.342;2022-12-29T13:17:26;92485.75;;;8.06;51.73
39613;BME280;25303;48.896;13.342;2022-12-29T13:20:20;92481.06;;;8.01;51.89
39613;BME280;25303;48.896;13.342;2022-12-29T13:23:13;92493.03;;;7.93;51.49
39613;BME280;25303;48.896;13.342;2022-12-29T13:26:05;92493.47;;;7.88;51.86
39613;BME280;25303;48.896;13.342;2022-12-29T13:28:55;92492.31;;;7.82;51.84
39613;BME280;25303;48.896;13.342;2022-12-29T13:31:47;92500.28;;;7.79;52.03
39613;BME280;25303;48.896;13.342;2022-12-29T13:34:37;92495.63;;;7.74;51.67
39613;BME280;25303;48.896;13.342;2022-12-29T13:37:26;92499.63;;;7.77;52.06
39613;BME280;25303;48.896;13.342;2022-12-29T13:40:13;92500.59;;;7.76;51.91
39613;BME280;25303;48.896;13.342;2022-12-29T13:42:57;92500.47;;;7.78;52.05
39613;BME280;25303;48.896;13.342;2022-12-29T13:45:42;92508.78;;;7.80;51.89
39613;BME280;25303;48.896;13.342;2022-12-29T13:48:36;92504.03;;;7.85;52.17
39613;BME280;25303;48.896;13.342;2022-12-29T13:51:20;92507.91;;;7.89;51.97
39613;BME280;25303;48.896;13.342;2022-12-29T13:54:19;92511.25;;;7.89;51.96
39613;BME280;25303;48.896;13.342;2022-12-29T13:57:08;92510.97;;;7.93;52.08
39613;BME280;25303;48.896;13.342;2022-12-29T13:59:57;92523.00;;;7.92;52.08
39613;BME280;25303;48.896;13.342;2022-12-29T14:03:12;92515.13;;;7.94;51.77
39613;BME280;25303;48.896;13.342;2022-12-29T14:06:11;92514.47;;;7.91;51.65
39613;BME280;25303;48.896;13.342;2022-12-29T14:08:58;92516.38;;;7.89;51.81
39613;BME280;25303;48.896;13.342;2022-12-29T14:11:42;92510.47;;;7.89;52.04
39613;BME280;25303;48.896;13.342;2022-12-29T14:14:28;92512.38;;;7.87;51.89
39613;BME280;25303;48.896;13.342;2022-12-29T14:17:20;92512.81;;;7.82;51.85
39613;BME280;25303;48.896;13.342;2022-12-29T14:20:04;92508.00;;;7.79;51.80
39613;BME280;25303;48.896;13.342;2022-12-29T14:22:59;92511.13;;;7.73;51.89
39613;BME280;25303;48.896;13.342;2022-12-29T14:26:00;92519.25;;;7.68;52.05
39613;BME280;25303;48.896;13.342;2022-12-29T14:28:51;92507.34;;;7.59;52.03
39613;BME280;25303;48.896;13.342;2022-12-29T14:31:34;92520.88;;;7.51;51.85
39613;BME280;25303;48.896;13.342;2022-12-29T14:34:29;92522.56;;;7.42;52.04
39613;BME280;25303;48.896;13.342;2022-12-29T14:37:23;92513.06;;;7.35;52.30
39613;BME280;25303;48.896;13.342;2022-12-29T14:40:14;92511.22;;;7.27;52.39
39613;BME280;25303;48.896;13.342;2022-12-29T14:43:00;92511.78;;;7.21;52.53
39613;BME280;25303;48.896;13.342;2022-12-29T14:45:43;92506.44;;;7.14;52.72
39613;BME280;25303;48.896;13.342;2022-12-29T14:48:39;92513.22;;;7.05;52.82
39613;BME280;25303;48.896;13.342;2022-12-29T14:51:30;92511.91;;;7.01;52.88
39613;BME280;25303;48.896;13.342;2022-12-29T14:54:45;92511.66;;;6.94;52.88
39613;BME280;25303;48.896;13.342;2022-12-29T14:57:37;92517.22;;;6.90;52.93
39613;BME280;25303;48.896;13.342;2022-12-29T15:00:24;92521.00;;;6.86;53.08
39613;BME280;25303;48.896;13.342;2022-12-29T15:03:14;92525.22;;;6.77;53.24
39613;BME280;25303;48.896;13.342;2022-12-29T15:06:04;92514.31;;;6.75;53.19